Terminal Aerodrome Forecast
Issued by NWS

Home | Current Version | Previous Version | Text Only | Print | Product List | Glossary Off
Versions: 1 2 3 4 5 6 7 8 9 10 11 12 13 14 15 16 17 18 19 20 21 22

000
FTUS44 KTSA 231400 AAB
TAFBVO
TAF AMD
KBVO 231411Z 2314/2412 13011KT P6SM VCSH OVC025
      TEMPO 2314/2318 4SM -SHRA BKN010
     FM240000 14009KT 5SM RA OVC050
     FM240300 17003KT 3SM RA OVC025 PROB30 2403/2409 1/2SM +TSRA
      BKN030CB
     FM240900 16009KT 5SM -RA OVC022=

USA.gov is the U.S. government's official web portal to all federal, state and local government web resources and services.